Time;durP1;ratioP1;P1;durP2;ratioP2;P2;SDS_P1;SDS_P2;PMS_P1;PMS_P2;Temp;Humidity;BMP_temperature;BMP_pressure;BME280_temperature;BME280_humidity;BME280_pressure;Samples;Min_cycle;Max_cycle;Signal;HPM_P1;HPM_P2
2023/04/11 00:01:59;;;;;;;13.32;9.73;;;;;;;6.10;77.75;94551.81;5023454;28;20091;-79
2023/04/11 00:04:25;;;;;;;12.68;8.93;;;;;;;6.05;77.47;94559.91;5026746;28;20061;-79
2023/04/11 00:06:50;;;;;;;12.68;9.95;;;;;;;6.06;78.41;94529.78;5024744;28;20057;-79
2023/04/11 00:09:16;;;;;;;12.02;9.27;;;;;;;6.14;78.56;94542.97;5009663;28;20029;-79
2023/04/11 00:11:42;;;;;;;12.98;9.27;;;;;;;6.10;78.17;94544.94;5044126;28;20492;-79
2023/04/11 00:14:07;;;;;;;15.32;10.75;;;;;;;6.18;78.11;94536.63;5026751;28;20037;-79
2023/04/11 00:16:33;;;;;;;14.60;10.35;;;;;;;6.11;77.33;94532.84;5023804;28;20049;-79
2023/04/11 00:18:59;;;;;;;12.63;9.93;;;;;;;5.98;78.38;94530.28;5008247;28;20498;-79
2023/04/11 00:21:25;;;;;;;12.57;9.07;;;;;;;6.07;78.12;94534.81;5010590;28;20048;-79
2023/04/11 00:23:53;;;;;;;13.93;10.07;;;;;;;6.01;78.87;94540.41;5010477;28;20511;-79
2023/04/11 00:26:22;;;;;;;14.00;9.85;;;;;;;6.00;79.25;94533.59;5027589;28;20116;-78
2023/04/11 00:28:47;;;;;;;14.82;10.27;;;;;;;5.93;79.00;94543.50;5006049;28;20069;-79
2023/04/11 00:31:13;;;;;;;14.93;9.85;;;;;;;6.01;78.61;94533.47;5010863;28;20511;-79
2023/04/11 00:33:38;;;;;;;16.00;9.57;;;;;;;5.90;78.17;94530.78;5023235;28;20033;-79
2023/04/11 00:36:04;;;;;;;14.02;9.55;;;;;;;5.98;78.10;94530.28;5026143;28;20034;-79
2023/04/11 00:38:30;;;;;;;14.32;10.30;;;;;;;5.93;78.00;94530.59;5010724;28;20388;-77
2023/04/11 00:40:55;;;;;;;18.83;10.57;;;;;;;5.95;76.52;94518.44;4990747;28;20526;-77
2023/04/11 00:43:20;;;;;;;14.60;9.93;;;;;;;6.02;76.67;94524.00;5025764;28;20061;-77
2023/04/11 00:45:46;;;;;;;14.60;10.02;;;;;;;6.04;76.50;94540.19;5019240;28;20033;-80
2023/04/11 00:48:11;;;;;;;14.48;10.63;;;;;;;6.06;76.67;94529.78;5023652;28;20033;-78
2023/04/11 00:50:39;;;;;;;13.70;9.23;;;;;;;6.10;76.08;94519.16;5009728;28;20411;-78
2023/04/11 00:53:04;;;;;;;14.80;9.77;;;;;;;6.19;75.18;94528.81;5018502;28;20125;-77
2023/04/11 00:55:30;;;;;;;13.27;8.80;;;;;;;6.12;75.27;94525.00;5008370;28;20094;-78
2023/04/11 00:57:55;;;;;;;12.45;9.27;;;;;;;6.17;74.54;94527.25;5015348;28;20030;-78
2023/04/11 01:00:21;;;;;;;14.95;10.43;;;;;;;6.22;75.17;94527.78;5011393;28;20036;-76
2023/04/11 01:02:47;;;;;;;12.95;8.82;;;;;;;6.31;75.72;94529.69;5010198;28;20146;-78
2023/04/11 01:05:13;;;;;;;13.88;9.27;;;;;;;6.19;75.02;94521.06;5027571;28;20487;-79
2023/04/11 01:07:39;;;;;;;14.00;9.63;;;;;;;6.25;74.94;94532.72;5008844;28;20034;-77
2023/04/11 01:10:05;;;;;;;13.65;10.07;;;;;;;6.26;75.53;94522.28;5038214;28;20026;-78
2023/04/11 01:12:31;;;;;;;13.38;9.95;;;;;;;6.20;75.26;94516.72;5025964;28;20107;-78
2023/04/11 01:14:56;;;;;;;13.68;9.73;;;;;;;6.29;75.35;94526.41;5027117;28;20547;-78
2023/04/11 01:17:24;;;;;;;14.13;10.23;;;;;;;6.37;75.90;94520.69;5006824;28;20037;-78
2023/04/11 01:19:50;;;;;;;14.07;9.13;;;;;;;6.25;74.96;94525.78;5015609;28;20055;-78
2023/04/11 01:22:16;;;;;;;12.45;9.02;;;;;;;6.23;74.68;94519.91;5006025;28;20492;-78
2023/04/11 01:24:42;;;;;;;13.23;9.02;;;;;;;6.38;74.30;94540.41;4990014;28;20122;-78
2023/04/11 01:27:08;;;;;;;12.95;9.38;;;;;;;6.22;74.28;94510.53;5040259;28;20379;-79
2023/04/11 01:29:33;;;;;;;12.35;8.85;;;;;;;6.39;74.88;94524.00;5008157;28;20053;-79
2023/04/11 01:31:59;;;;;;;13.88;9.75;;;;;;;6.39;74.97;94531.75;5009470;28;20098;-78
2023/04/11 01:34:27;;;;;;;11.93;8.88;;;;;;;6.40;75.26;94530.81;5023535;28;20030;-78
2023/04/11 01:36:52;;;;;;;12.00;8.77;;;;;;;6.31;74.52;94503.06;5007661;28;20099;-78
2023/04/11 01:39:18;;;;;;;13.57;8.98;;;;;;;6.39;73.52;94509.34;5012825;28;20033;-77
2023/04/11 01:41:46;;;;;;;12.75;8.82;;;;;;;6.43;74.14;94504.78;5007668;28;20064;-79
2023/04/11 01:44:12;;;;;;;11.63;8.75;;;;;;;6.43;74.09;94508.19;5009970;28;20092;-78
2023/04/11 01:46:37;;;;;;;11.85;8.45;;;;;;;6.51;73.22;94511.97;5010199;28;20112;-79
2023/04/11 01:49:03;;;;;;;11.70;8.63;;;;;;;6.25;73.37;94505.16;5016007;28;20029;-79
2023/04/11 01:51:28;;;;;;;13.23;9.02;;;;;;;6.43;73.25;94504.78;5008723;28;20044;-78
2023/04/11 01:53:54;;;;;;;11.10;8.32;;;;;;;6.39;73.06;94496.44;4993003;28;20034;-79
2023/04/11 01:56:20;;;;;;;12.43;8.98;;;;;;;6.39;73.18;94505.94;4995326;28;20038;-79
2023/04/11 01:58:45;;;;;;;11.65;8.60;;;;;;;6.36;73.20;94494.09;5022334;28;20038;-79
2023/04/11 02:01:12;;;;;;;11.95;8.52;;;;;;;6.39;72.96;94504.19;5014334;28;20415;-79
2023/04/11 02:03:38;;;;;;;12.02;8.93;;;;;;;6.42;72.85;94493.63;5009122;28;20033;-79
2023/04/11 02:06:04;;;;;;;12.82;9.40;;;;;;;6.52;73.18;94506.72;5008114;28;20058;-79
2023/04/11 02:08:29;;;;;;;14.27;8.90;;;;;;;6.25;72.95;94494.03;5007556;28;20022;-78
2023/04/11 02:10:55;;;;;;;12.45;8.65;;;;;;;6.14;72.50;94468.16;5015187;28;20053;-79
2023/04/11 02:13:20;;;;;;;12.23;9.30;;;;;;;6.42;72.41;94500.56;5019125;28;20087;-79
2023/04/11 02:15:46;;;;;;;12.95;9.00;;;;;;;6.29;72.18;94507.53;5006133;28;20041;-78
2023/04/11 02:18:11;;;;;;;13.60;9.55;;;;;;;6.30;72.66;94504.03;5013973;28;20049;-79
2023/04/11 02:20:39;;;;;;;17.45;9.43;;;;;;;6.33;72.97;94501.22;5032537;28;20128;-79
2023/04/11 02:23:05;;;;;;;13.68;9.38;;;;;;;6.35;72.72;94509.66;5011720;28;20052;-78
2023/04/11 02:25:30;;;;;;;14.70;9.95;;;;;;;6.40;72.49;94510.16;5028883;28;20029;-79
2023/04/11 02:27:56;;;;;;;14.65;10.30;;;;;;;6.21;72.35;94503.75;4997125;28;20049;-79
2023/04/11 02:30:21;;;;;;;17.27;11.00;;;;;;;6.35;73.04;94514.81;5013403;28;20035;-79
2023/04/11 02:32:48;;;;;;;14.35;10.02;;;;;;;6.25;73.42;94499.19;5012467;28;20075;-78
2023/04/11 02:35:14;;;;;;;15.45;10.82;;;;;;;6.28;73.80;94511.03;5013461;28;20028;-77
2023/04/11 02:37:40;;;;;;;14.05;10.82;;;;;;;6.26;73.43;94511.94;5028023;28;20037;-78
2023/04/11 02:40:06;;;;;;;14.00;9.82;;;;;;;6.22;72.40;94501.97;5031021;28;20033;-78
2023/04/11 02:42:32;;;;;;;13.65;9.55;;;;;;;6.28;72.50;94516.19;5015778;28;20041;-79
2023/04/11 02:44:58;;;;;;;15.05;10.13;;;;;;;6.20;72.72;94520.13;5032440;28;20510;-78
2023/04/11 02:47:24;;;;;;;16.58;10.57;;;;;;;6.23;72.57;94507.00;5015987;28;20120;-78
2023/04/11 02:49:49;;;;;;;16.38;10.90;;;;;;;6.26;72.42;94506.78;5016058;28;20036;-79
2023/04/11 02:52:16;;;;;;;15.73;10.98;;;;;;;6.32;72.59;94518.44;5031415;28;20079;-78
2023/04/11 02:54:42;;;;;;;14.88;9.88;;;;;;;6.23;72.01;94503.63;5016123;28;20022;-79
2023/04/11 02:57:07;;;;;;;13.98;9.60;;;;;;;6.25;72.16;94502.56;5015724;28;20034;-79
2023/04/11 02:59:33;;;;;;;15.35;10.13;;;;;;;6.21;72.43;94490.84;5032240;28;20486;-79
2023/04/11 03:01:59;;;;;;;17.10;11.35;;;;;;;6.15;71.76;94478.34;5015708;28;20033;-79
2023/04/11 03:04:24;;;;;;;14.27;9.82;;;;;;;6.24;72.44;94484.63;5032170;28;20487;-78
2023/04/11 03:06:50;;;;;;;15.93;11.35;;;;;;;6.13;73.08;94484.56;5015580;28;20033;-79
2023/04/11 03:09:15;;;;;;;18.08;11.45;;;;;;;6.00;72.75;94461.41;5032086;28;20025;-79
2023/04/11 03:11:41;;;;;;;16.17;11.18;;;;;;;6.28;72.35;94490.41;5033689;28;20056;-79
2023/04/11 03:14:06;;;;;;;15.70;11.50;;;;;;;6.23;72.31;94491.53;4999103;28;20029;-79
2023/04/11 03:16:32;;;;;;;16.08;10.90;;;;;;;6.22;73.14;94489.91;4998920;28;20038;-79
2023/04/11 03:18:57;;;;;;;17.85;11.88;;;;;;;6.15;72.16;94478.34;5015685;28;20073;-79
2023/04/11 03:21:23;;;;;;;17.23;10.95;;;;;;;6.22;71.54;94484.75;5015385;28;20033;-79
2023/04/11 03:23:48;;;;;;;17.40;12.05;;;;;;;6.24;71.86;94488.03;5030817;28;20037;-78
2023/04/11 03:26:14;;;;;;;18.60;12.50;;;;;;;6.18;71.58;94478.13;5031668;28;20025;-79
2023/04/11 03:28:40;;;;;;;18.10;12.20;;;;;;;6.21;72.05;94483.09;5031775;28;20030;-79
2023/04/11 03:31:06;;;;;;;15.27;11.30;;;;;;;6.29;71.39;94486.88;5015202;28;20033;-78
2023/04/11 03:33:31;;;;;;;19.23;14.80;;;;;;;6.15;71.94;94469.81;5015191;28;20361;-78
2023/04/11 03:35:57;;;;;;;20.65;15.55;;;;;;;6.17;71.85;94491.97;5014840;28;20495;-79
2023/04/11 03:38:22;;;;;;;16.30;12.02;;;;;;;6.12;71.75;94499.22;5015034;28;20029;-79
2023/04/11 03:40:47;;;;;;;15.88;11.07;;;;;;;6.16;71.49;94487.75;4998507;28;20057;-79
2023/04/11 03:43:14;;;;;;;17.25;12.25;;;;;;;6.17;71.23;94484.25;4998856;28;20037;-79
2023/04/11 03:45:39;;;;;;;17.35;11.93;;;;;;;6.25;71.04;94494.03;5031372;28;20032;-79
2023/04/11 03:48:05;;;;;;;17.63;11.40;;;;;;;6.19;70.90;94487.53;5014952;28;20030;-79
2023/04/11 03:50:30;;;;;;;20.60;12.20;;;;;;;6.09;70.95;94489.09;5032591;28;20048;-79
2023/04/11 03:52:56;;;;;;;18.83;12.90;;;;;;;6.22;71.70;94486.50;4998443;28;20108;-79
2023/04/11 03:55:21;;;;;;;16.63;11.70;;;;;;;6.18;70.81;94482.47;4998253;28;20025;-79
2023/04/11 03:57:47;;;;;;;17.92;12.55;;;;;;;6.25;71.14;94491.44;4998428;28;20430;-79
2023/04/11 04:00:13;;;;;;;18.73;11.90;;;;;;;6.23;70.28;94490.72;5031474;28;20033;-79
2023/04/11 04:02:39;;;;;;;16.88;11.90;;;;;;;6.19;70.73;94495.28;5029952;28;20072;-78
2023/04/11 04:05:05;;;;;;;17.10;11.48;;;;;;;6.16;70.70;94492.91;5014168;28;20063;-78
2023/04/11 04:07:31;;;;;;;18.38;12.65;;;;;;;6.18;70.86;94490.22;5014542;28;20041;-79
2023/04/11 04:09:57;;;;;;;14.95;11.05;;;;;;;6.14;69.73;94489.63;5031152;28;20029;-79
2023/04/11 04:12:22;;;;;;;18.70;12.30;;;;;;;6.08;70.91;94484.06;4997795;28;20029;-79
2023/04/11 04:14:48;;;;;;;16.15;11.00;;;;;;;6.07;70.74;94477.25;5030739;28;20037;-78
2023/04/11 04:17:14;;;;;;;21.35;12.63;;;;;;;6.14;70.67;94486.22;5014215;28;20042;-79
2023/04/11 04:19:40;;;;;;;17.67;12.20;;;;;;;6.16;71.27;94490.34;4997942;28;20109;-79
2023/04/11 04:22:10;;;;;;;17.98;12.10;;;;;;;6.18;70.61;94491.03;5014226;28;20036;-78
2023/04/11 04:24:44;;;;;;;18.10;12.20;;;;;;;6.02;70.36;94465.53;5030638;28;20084;-79
2023/04/11 04:27:13;;;;;;;18.35;12.10;;;;;;;6.09;70.09;94477.97;5030898;28;20037;-78
2023/04/11 04:29:45;;;;;;;18.20;12.07;;;;;;;6.16;70.18;94484.38;5030474;28;20511;-79
2023/04/11 04:32:21;;;;;;;17.48;12.27;;;;;;;6.09;70.09;94486.53;5014958;28;20064;-79
2023/04/11 04:34:53;;;;;;;20.08;13.68;;;;;;;6.00;70.32;94487.19;5030435;28;20076;-78
2023/04/11 04:37:23;;;;;;;17.50;11.77;;;;;;;6.13;70.55;94480.25;5014768;28;20029;-79
2023/04/11 04:40:06;;;;;;;17.60;11.88;;;;;;;6.10;70.60;94490.78;5030357;28;20022;-79
2023/04/11 04:42:33;;;;;;;17.80;13.07;;;;;;;6.12;70.48;94477.75;5030562;28;20128;-79
2023/04/11 04:44:58;;;;;;;18.30;12.82;;;;;;;6.10;70.61;94472.72;5031884;28;20021;-78
2023/04/11 04:47:24;;;;;;;17.45;12.98;;;;;;;6.02;70.66;94472.44;5014306;28;20582;-79
2023/04/11 04:49:54;;;;;;;17.65;11.98;;;;;;;6.03;70.06;94471.50;5030592;28;20118;-78
2023/04/11 04:52:19;;;;;;;19.30;12.65;;;;;;;6.11;70.68;94484.69;5014629;28;20037;-78
2023/04/11 04:54:45;;;;;;;17.65;13.23;;;;;;;6.03;69.82;94474.06;5030827;28;20117;-78
2023/04/11 04:57:11;;;;;;;20.10;13.55;;;;;;;6.01;70.07;94476.75;5030721;28;20037;-79
2023/04/11 04:59:36;;;;;;;18.38;12.68;;;;;;;5.99;70.01;94478.63;5030328;28;20029;-79
2023/04/11 05:02:02;;;;;;;19.70;13.52;;;;;;;5.91;70.33;94451.72;5030028;28;20040;-78
2023/04/11 05:04:28;;;;;;;20.98;15.02;;;;;;;6.02;70.26;94475.03;5014220;28;20036;-79
2023/04/11 05:06:54;;;;;;;18.02;13.30;;;;;;;6.06;70.17;94475.63;4997446;28;20033;-79
2023/04/11 05:09:20;;;;;;;17.48;12.20;;;;;;;5.91;70.35;94454.28;5030417;28;20526;-79
2023/04/11 05:11:45;;;;;;;17.35;12.57;;;;;;;6.11;70.23;94481.28;4997778;28;20080;-78
2023/04/11 05:14:11;;;;;;;21.65;13.95;;;;;;;6.14;69.68;94484.47;5030157;28;20498;-78
2023/04/11 05:16:39;;;;;;;17.75;13.43;;;;;;;6.12;69.82;94473.41;5031827;28;20029;-79
2023/04/11 05:19:05;;;;;;;19.20;13.05;;;;;;;6.05;69.20;94482.53;5030208;28;20132;-79
2023/04/11 05:21:30;;;;;;;20.17;12.77;;;;;;;5.97;69.57;94474.50;5013897;28;20483;-78
2023/04/11 05:23:56;;;;;;;19.00;12.30;;;;;;;5.81;69.44;94429.13;5013693;28;20084;-78
2023/04/11 05:26:21;;;;;;;19.20;12.75;;;;;;;6.10;68.97;94485.63;5031461;28;20029;-79
2023/04/11 05:28:47;;;;;;;19.02;12.90;;;;;;;6.06;69.49;94476.44;5030003;28;20037;-79
2023/04/11 05:31:12;;;;;;;19.58;12.80;;;;;;;6.06;68.47;94467.88;5040448;28;20037;-78
2023/04/11 05:33:38;;;;;;;18.70;13.02;;;;;;;5.98;69.44;94443.44;5028047;28;20041;-78
2023/04/11 05:36:05;;;;;;;21.30;13.70;;;;;;;6.19;69.00;94477.22;5000238;28;20040;-78
2023/04/11 05:38:33;;;;;;;19.50;12.40;;;;;;;6.22;69.31;94474.41;5035826;28;20069;-78
2023/04/11 05:40:59;;;;;;;20.83;13.25;;;;;;;6.14;69.32;94481.88;5008481;28;20113;-78
2023/04/11 05:43:25;;;;;;;18.95;12.63;;;;;;;6.17;68.75;94471.34;4993371;28;20519;-78
2023/04/11 05:45:51;;;;;;;18.25;12.48;;;;;;;6.23;68.61;94465.75;5034882;28;20112;-79
2023/04/11 05:48:18;;;;;;;20.15;13.15;;;;;;;6.25;68.42;94448.41;5013825;28;20037;-78
2023/04/11 05:50:44;;;;;;;16.60;11.65;;;;;;;6.33;68.40;94470.25;5006229;28;20507;-78
2023/04/11 05:53:10;;;;;;;21.15;13.05;;;;;;;6.40;68.25;94464.53;5012906;28;20038;-78
2023/04/11 05:55:35;;;;;;;16.05;11.77;;;;;;;6.45;67.53;94462.44;5020964;28;20023;-77
2023/04/11 05:58:01;;;;;;;15.85;11.20;;;;;;;6.23;68.77;94439.13;5018797;28;20040;-79
2023/04/11 06:00:29;;;;;;;17.80;12.45;;;;;;;6.44;68.33;94463.41;5011330;28;20080;-79
2023/04/11 06:02:55;;;;;;;18.30;12.32;;;;;;;6.47;67.95;94459.78;5028393;28;20036;-78
2023/04/11 06:05:20;;;;;;;18.67;12.75;;;;;;;6.38;67.78;94457.84;5028509;28;20101;-79
2023/04/11 06:07:46;;;;;;;17.20;11.52;;;;;;;6.53;67.63;94454.16;5033276;28;20060;-78
2023/04/11 06:10:11;;;;;;;17.33;11.45;;;;;;;6.52;67.55;94437.03;5026605;28;20534;-78
2023/04/11 06:12:37;;;;;;;18.17;11.90;;;;;;;6.58;68.26;94431.44;5031602;28;20037;-78
2023/04/11 06:15:03;;;;;;;16.05;11.85;;;;;;;6.71;67.46;94450.25;5032579;28;20395;-78
2023/04/11 06:17:28;;;;;;;16.90;11.50;;;;;;;6.70;67.53;94443.41;5032174;28;20116;-78
2023/04/11 06:19:54;;;;;;;17.20;11.90;;;;;;;6.74;66.31;94440.59;5016526;28;20025;-78
2023/04/11 06:22:19;;;;;;;19.58;11.80;;;;;;;6.75;66.65;94430.19;5030248;28;20473;-77
2023/04/11 06:24:45;;;;;;;15.68;11.80;;;;;;;6.79;67.23;94436.75;4998879;28;20030;-77
2023/04/11 06:27:10;;;;;;;15.68;11.52;;;;;;;6.89;66.75;94418.84;5030873;28;20442;-77
2023/04/11 06:29:36;;;;;;;16.55;11.80;;;;;;;7.02;66.63;94435.06;5031123;28;20060;-78
2023/04/11 06:32:02;;;;;;;18.17;11.75;;;;;;;7.26;67.35;94441.91;4996609;28;20047;-78
2023/04/11 06:34:27;;;;;;;17.85;11.40;;;;;;;7.31;65.64;94434.63;5026964;28;20029;-77
2023/04/11 06:36:53;;;;;;;15.95;10.73;;;;;;;7.41;65.28;94438.16;4997776;28;20484;-78
2023/04/11 06:39:19;;;;;;;17.23;10.80;;;;;;;7.42;64.80;94449.31;5031812;28;20040;-77
2023/04/11 06:41:47;;;;;;;17.10;11.18;;;;;;;7.54;64.63;94427.69;4997810;28;20068;-77
2023/04/11 06:44:13;;;;;;;14.80;11.20;;;;;;;7.61;63.79;94419.34;5013128;28;20522;-77
2023/04/11 06:46:38;;;;;;;18.13;11.30;;;;;;;7.75;63.85;94422.63;4999379;28;20033;-77
2023/04/11 06:49:06;;;;;;;16.05;11.23;;;;;;;7.89;63.44;94406.88;5015155;28;20076;-77
2023/04/11 06:51:32;;;;;;;14.30;10.57;;;;;;;7.98;63.96;94419.06;5032697;28;20040;-77
2023/04/11 06:53:58;;;;;;;12.93;9.60;;;;;;;7.95;62.58;94402.97;5016254;28;20102;-78
2023/04/11 06:56:23;;;;;;;13.20;9.73;;;;;;;8.17;62.53;94415.03;5032687;28;20411;-78
2023/04/11 06:58:49;;;;;;;14.77;10.32;;;;;;;8.16;62.86;94408.19;5032339;28;20036;-77
2023/04/11 07:01:15;;;;;;;14.65;10.07;;;;;;;8.23;61.89;94420.53;5015951;28;20040;-78
2023/04/11 07:03:40;;;;;;;13.90;10.13;;;;;;;8.12;61.10;94399.84;5032376;28;20029;-77
2023/04/11 07:06:08;;;;;;;12.27;9.40;;;;;;;8.31;61.19;94432.03;5032310;28;20029;-77
2023/04/11 07:08:34;;;;;;;13.95;10.15;;;;;;;8.31;61.72;94421.69;5031736;28;20059;-78
2023/04/11 07:10:59;;;;;;;13.07;9.43;;;;;;;8.37;60.90;94428.97;4999145;28;20434;-77
2023/04/11 07:13:25;;;;;;;12.18;9.15;;;;;;;8.23;61.84;94430.88;5016016;28;20060;-77
2023/04/11 07:15:51;;;;;;;13.10;9.57;;;;;;;8.33;61.24;94436.16;5015822;28;20529;-77
2023/04/11 07:18:16;;;;;;;14.88;10.82;;;;;;;8.26;61.22;94430.63;5033661;28;20030;-77
2023/04/11 07:20:41;;;;;;;16.23;10.65;;;;;;;8.20;61.42;94430.31;5015854;28;20053;-77
2023/04/11 07:23:07;;;;;;;13.70;10.02;;;;;;;7.85;61.62;94426.13;5032408;28;20110;-77
2023/04/11 07:25:32;;;;;;;14.15;10.32;;;;;;;7.96;61.57;94410.59;5015353;28;20049;-77
2023/04/11 07:28:00;;;;;;;11.75;9.35;;;;;;;8.08;61.39;94403.66;5032291;28;20033;-77
2023/04/11 07:30:26;;;;;;;12.70;9.45;;;;;;;8.25;61.47;94417.81;4999052;28;20037;-77
2023/04/11 07:32:52;;;;;;;12.75;9.20;;;;;;;8.32;61.01;94413.78;5015102;28;20037;-77
2023/04/11 07:35:18;;;;;;;13.15;9.27;;;;;;;8.33;61.13;94389.56;5031386;28;20033;-77
2023/04/11 07:37:44;;;;;;;20.10;12.20;;;;;;;8.23;60.62;94378.31;5015089;28;20030;-77
2023/04/11 07:40:12;;;;;;;18.40;12.18;;;;;;;8.52;60.12;94409.63;5031520;28;20034;-77
2023/04/11 07:42:38;;;;;;;23.13;15.50;;;;;;;8.61;59.85;94413.22;5015173;28;20511;-77
2023/04/11 07:45:04;;;;;;;14.05;10.20;;;;;;;8.61;59.63;94392.50;5014994;28;20083;-78
2023/04/11 07:47:30;;;;;;;14.38;10.48;;;;;;;8.89;58.56;94402.28;5031469;28;20045;-77
2023/04/11 07:49:55;;;;;;;15.95;10.75;;;;;;;8.91;59.83;94400.38;5031276;28;20038;-78
2023/04/11 07:52:21;;;;;;;14.82;10.65;;;;;;;8.98;59.43;94394.69;5014562;28;20045;-77
2023/04/11 07:54:46;;;;;;;11.10;8.38;;;;;;;9.18;58.85;94399.84;4998446;28;20029;-77
2023/04/11 07:57:11;;;;;;;11.27;8.80;;;;;;;9.13;57.33;94401.97;5031322;28;20507;-77
2023/04/11 07:59:37;;;;;;;10.75;8.52;;;;;;;8.97;58.38;94383.50;5014565;28;20597;-77
2023/04/11 08:02:05;;;;;;;11.60;8.15;;;;;;;9.10;56.95;94384.09;5032219;28;20033;-77
2023/04/11 08:04:32;;;;;;;12.43;8.23;;;;;;;9.03;57.04;94393.34;5014837;28;20030;-77
2023/04/11 08:06:57;;;;;;;10.88;7.82;;;;;;;9.12;57.42;94391.75;5031102;28;20061;-77
2023/04/11 08:09:23;;;;;;;11.60;8.45;;;;;;;9.10;57.68;94368.56;5031821;28;20030;-77
2023/04/11 08:11:48;;;;;;;12.63;8.82;;;;;;;9.31;57.65;94384.09;5014530;28;20122;-77
2023/04/11 08:14:14;;;;;;;11.98;8.77;;;;;;;9.37;57.92;94378.38;5031976;28;20038;-77
2023/04/11 08:16:40;;;;;;;14.43;10.38;;;;;;;9.39;57.37;94363.50;5030678;28;20056;-78
2023/04/11 08:19:05;;;;;;;20.15;11.10;;;;;;;9.45;56.88;94375.13;5032011;28;20029;-78
2023/04/11 08:21:31;;;;;;;11.82;8.85;;;;;;;9.56;57.53;94358.66;5030679;28;20041;-78
2023/04/11 08:23:56;;;;;;;12.88;9.23;;;;;;;9.69;57.21;94373.97;5014194;28;20038;-77
2023/04/11 08:26:22;;;;;;;12.00;9.10;;;;;;;9.79;56.41;94373.03;5032150;28;20033;-77
2023/04/11 08:28:47;;;;;;;11.88;9.25;;;;;;;9.84;56.46;94368.28;5031916;28;20515;-78
2023/04/11 08:31:13;;;;;;;11.23;7.95;;;;;;;9.88;55.26;94362.81;5031436;28;20029;-78
2023/04/11 08:33:38;;;;;;;13.30;8.63;;;;;;;10.03;54.89;94358.91;5013963;28;20029;-78
2023/04/11 08:36:08;;;;;;;11.20;7.25;;;;;;;9.83;53.98;94324.31;5030774;28;20067;-77
2023/04/11 08:38:34;;;;;;;31.02;18.38;;;;;;;10.02;55.07;94347.69;5014967;28;20519;-78
2023/04/11 08:41:00;;;;;;;18.15;13.02;;;;;;;10.02;54.91;94331.31;4997713;28;20034;-77
2023/04/11 08:43:25;;;;;;;15.32;11.00;;;;;;;10.03;53.96;94335.56;5030497;28;20423;-77
2023/04/11 08:45:51;;;;;;;29.85;17.15;;;;;;;10.10;54.99;94338.41;5046935;28;20030;-77
2023/04/11 08:48:18;;;;;;;24.88;18.08;;;;;;;10.14;54.23;94352.75;5014216;28;20037;-77
2023/04/11 08:50:43;;;;;;;20.48;15.38;;;;;;;10.11;53.73;94345.22;5030256;28;20048;-77
2023/04/11 08:53:09;;;;;;;16.80;13.00;;;;;;;10.11;53.28;94325.28;5031384;28;20487;-77
2023/04/11 08:55:43;;;;;;;19.55;15.27;;;;;;;10.26;53.25;94342.09;4997377;28;20116;-77
2023/04/11 08:58:09;;;;;;;12.85;10.32;;;;;;;10.22;53.68;94345.94;5013619;28;20517;-77
2023/04/11 09:00:35;;;;;;;12.05;8.05;;;;;;;10.30;52.92;94334.88;5031596;28;20033;-77
2023/04/11 09:03:02;;;;;;;11.10;8.32;;;;;;;10.32;53.08;94334.75;5031466;28;20048;-77
2023/04/11 09:05:28;;;;;;;11.02;8.05;;;;;;;10.40;53.57;94324.53;5013824;28;20084;-77
2023/04/11 09:07:54;;;;;;;10.95;7.70;;;;;;;10.24;52.46;94323.25;5029951;28;20033;-77
2023/04/11 09:10:21;;;;;;;13.88;8.65;;;;;;;10.25;52.88;94321.47;5013437;28;20048;-77
2023/04/11 09:12:46;;;;;;;10.48;8.23;;;;;;;10.50;52.63;94322.72;5029670;28;20090;-77
2023/04/11 09:15:21;;;;;;;10.35;8.32;;;;;;;10.67;52.49;94318.59;5031338;28;20045;-77
2023/04/11 09:17:48;;;;;;;11.65;7.80;;;;;;;10.70;52.47;94294.94;5031000;28;20021;-77
2023/04/11 09:20:17;;;;;;;11.80;8.70;;;;;;;10.99;52.70;94313.06;5029702;28;20104;-77
2023/04/11 09:22:43;;;;;;;10.70;8.18;;;;;;;11.17;51.52;94306.16;5045660;28;20032;-77
2023/04/11 09:25:08;;;;;;;9.57;7.47;;;;;;;11.15;50.70;94302.06;5029791;28;20037;-77
2023/04/11 09:27:34;;;;;;;9.85;7.10;;;;;;;11.28;49.70;94291.31;5013593;28;20053;-77
2023/04/11 09:30:00;;;;;;;11.07;7.35;;;;;;;11.23;49.48;94293.53;5013842;28;20113;-77
2023/04/11 09:32:33;;;;;;;10.80;7.75;;;;;;;11.17;50.47;94300.13;5013432;28;20028;-77
2023/04/11 09:35:08;;;;;;;11.60;8.52;;;;;;;11.09;50.35;94298.25;4996986;28;20048;-77
2023/04/11 09:37:53;;;;;;;9.85;7.72;;;;;;;11.24;48.66;94300.38;5013181;28;20025;-77
2023/04/11 09:40:31;;;;;;;11.13;7.28;;;;;;;11.16;49.04;94285.50;5029305;28;20464;-77
2023/04/11 09:42:59;;;;;;;10.40;8.25;;;;;;;11.11;49.60;94259.09;5029791;28;20041;-78
2023/04/11 09:45:25;;;;;;;12.65;8.57;;;;;;;11.26;48.99;94277.66;5013129;28;20053;-77
2023/04/11 09:47:52;;;;;;;11.63;8.85;;;;;;;11.40;49.13;94259.78;5029583;28;20471;-77
2023/04/11 09:50:18;;;;;;;10.25;8.18;;;;;;;11.54;48.95;94262.88;5030759;28;20029;-77
2023/04/11 09:52:44;;;;;;;11.05;8.48;;;;;;;11.67;47.70;94260.72;5031047;28;20099;-77
2023/04/11 09:55:11;;;;;;;13.05;9.32;;;;;;;11.70;47.99;94255.22;5029377;28;20423;-77
2023/04/11 09:57:44;;;;;;;13.35;8.52;;;;;;;11.74;47.92;94247.94;5029499;28;20467;-77
2023/04/11 10:00:15;;;;;;;10.07;7.90;;;;;;;11.74;48.24;94251.38;5013812;28;20044;-77
2023/04/11 10:02:44;;;;;;;9.13;6.97;;;;;;;11.63;47.15;94254.19;5013952;28;20088;-77
2023/04/11 10:05:11;;;;;;;11.15;8.98;;;;;;;11.37;49.48;94254.06;4996973;28;20065;-77
2023/04/11 10:07:54;;;;;;;10.32;7.97;;;;;;;11.31;49.38;94255.47;5013105;28;20029;-76
2023/04/11 10:10:21;;;;;;;12.02;8.77;;;;;;;11.35;48.65;94242.97;4997961;28;20111;-77
2023/04/11 10:12:47;;;;;;;11.75;8.43;;;;;;;11.46;48.93;94237.59;5012851;28;20033;-77
2023/04/11 10:15:12;;;;;;;12.27;9.07;;;;;;;11.47;48.52;94235.78;5030475;28;20032;-77
2023/04/11 10:17:39;;;;;;;11.70;8.73;;;;;;;11.67;49.26;94233.88;5029211;28;20033;-77
2023/04/11 10:20:42;;;;;;;9.85;7.95;;;;;;;11.74;48.73;94245.34;5013010;28;20044;-77
2023/04/11 10:23:07;;;;;;;10.95;8.38;;;;;;;12.01;48.61;94231.47;5009007;28;20524;-77
2023/04/11 10:25:52;;;;;;;9.98;8.18;;;;;;;12.14;48.05;94215.47;5029077;28;20084;-77
2023/04/11 10:28:37;;;;;;;11.57;8.68;;;;;;;12.48;47.68;94226.78;5029380;28;20033;-77
2023/04/11 10:31:12;;;;;;;11.13;8.35;;;;;;;12.70;46.61;94215.03;5030670;28;20037;-77
2023/04/11 10:33:38;;;;;;;11.05;8.38;;;;;;;12.88;46.46;94209.75;5032076;28;20034;-77
2023/04/11 10:36:04;;;;;;;11.13;8.32;;;;;;;12.82;45.21;94199.13;5016409;28;20495;-77
2023/04/11 10:38:35;;;;;;;10.85;7.90;;;;;;;12.82;44.57;94193.94;5034250;28;20290;-77
2023/04/11 10:41:32;;;;;;;13.63;8.40;;;;;;;12.82;44.11;94197.34;5033674;28;20511;-77
2023/04/11 10:44:14;;;;;;;10.40;7.97;;;;;;;12.92;43.79;94187.59;5032531;28;20030;-77
2023/04/11 10:46:52;;;;;;;12.05;8.68;;;;;;;13.06;44.18;94195.81;5016318;28;20474;-77
2023/04/11 10:49:34;;;;;;;10.10;7.95;;;;;;;13.03;42.52;94172.66;5016579;28;20029;-77
2023/04/11 10:52:20;;;;;;;10.60;7.70;;;;;;;13.14;43.01;94177.59;5032487;28;20026;-77
2023/04/11 10:54:46;;;;;;;12.43;8.27;;;;;;;13.27;42.59;94161.53;5016135;28;20041;-77
2023/04/11 10:57:11;;;;;;;10.90;7.95;;;;;;;13.46;41.97;94166.47;5015854;28;20033;-77
2023/04/11 10:59:37;;;;;;;11.93;8.50;;;;;;;13.45;43.56;94170.03;5015901;28;20037;-77
2023/04/11 11:02:02;;;;;;;12.10;8.63;;;;;;;13.48;43.03;94176.72;5032042;28;20613;-77
2023/04/11 11:04:31;;;;;;;9.80;8.25;;;;;;;13.59;43.50;94166.78;5032050;28;20100;-77
2023/04/11 11:06:58;;;;;;;10.20;7.90;;;;;;;13.51;41.67;94174.63;5015802;28;20483;-77
2023/04/11 11:09:23;;;;;;;10.32;7.90;;;;;;;13.58;41.03;94159.13;5032255;28;20110;-77
2023/04/11 11:12:04;;;;;;;10.00;7.78;;;;;;;13.70;40.89;94142.19;5031930;28;20037;-77
2023/04/11 11:14:29;;;;;;;11.02;8.57;;;;;;;13.83;42.32;94132.06;5033094;28;20026;-77
2023/04/11 11:16:55;;;;;;;10.57;7.82;;;;;;;13.99;40.58;94133.88;4999175;28;20043;-77
2023/04/11 11:19:20;;;;;;;10.40;8.35;;;;;;;14.07;41.78;94143.50;5032058;28;20487;-77
2023/04/11 11:21:46;;;;;;;12.60;8.63;;;;;;;14.04;41.64;94123.75;5031972;28;20423;-77
2023/04/11 11:24:11;;;;;;;11.07;8.00;;;;;;;14.23;41.32;94133.00;4999094;28;20487;-77
2023/04/11 11:26:38;;;;;;;11.77;8.63;;;;;;;14.30;41.31;94128.78;5033420;28;20033;-77